CST,Max TemperatureF,Mean TemperatureF,Min TemperatureF,Max Dew PointF,MeanDew PointF,Min DewpointF,Max Humidity, Mean Humidity, Min Humidity, Max Sea Level PressureIn, Mean Sea Level PressureIn, Min Sea Level PressureIn, Max VisibilityMiles, Mean VisibilityMiles, Min VisibilityMiles, Max Wind SpeedMPH, Mean Wind SpeedMPH, Max Gust SpeedMPH,PrecipitationIn, CloudCover, Events, WindDirDegrees
2013-2-1,49,27,5,32,18,-1,87,63,39,30.37,30.16,30.01,10,10,10,20,9,24,0.00,4,,263
2013-2-2,53,41,29,29,25,18,92,59,26,30.26,30.17,30.09,10,10,10,37,16,45,0.00,1,,299
2013-2-3,52,34,16,26,21,16,92,60,28,30.25,30.04,29.85,10,10,10,24,8,31,0.00,0,,252
2013-2-4,50,38,25,27,25,23,92,66,39,30.02,29.92,29.81,10,9,2,18,8,,0.00,3,,11
2013-2-5,52,39,26,27,22,16,75,53,30,30.05,29.98,29.88,10,10,10,20,8,26,0.00,1,,312
2013-2-6,61,47,33,31,27,24,75,53,30,29.96,29.86,29.75,10,10,10,21,11,26,0.00,1,,230
2013-2-7,53,34,15,28,22,13,91,56,21,30.24,30.11,29.99,10,10,10,21,9,30,0.00,1,,358
2013-2-8,47,30,12,29,22,11,100,73,45,30.24,30.13,29.95,10,6,0,29,13,43,0.00,2,Fog,158
2013-2-9,48,38,27,39,32,24,92,71,49,29.94,29.69,29.46,10,8,4,23,15,33,0.07,5,Rain-Thunderstorm,157
2013-2-10,38,32,26,37,25,16,100,84,68,29.99,29.46,29.23,10,4,0,44,27,56,0.19,7,Fog-Rain-Snow,338
2013-2-11,30,24,17,19,15,10,84,71,58,30.22,30.16,30.03,10,10,10,28,12,36,0.00,0,,300
2013-2-12,40,26,11,23,17,10,88,66,44,30.15,30.07,29.98,10,10,10,21,9,24,0.00,0,,284
2013-2-13,48,38,27,30,24,17,76,61,45,29.97,29.88,29.80,10,10,10,22,14,26,0.00,2,,295
2013-2-14,38,28,18,29,21,15,85,65,44,30.38,30.15,29.94,10,10,10,39,19,53,0.00,3,,330
2013-2-15,33,20,6,18,12,5,92,67,42,30.44,30.40,30.37,10,10,10,33,11,40,0.00,1,,309
2013-2-16,51,29,6,29,20,7,92,67,41,30.36,30.10,29.96,10,10,10,28,6,35,0.00,3,,292
2013-2-17,64,41,17,29,19,7,100,56,11,29.95,29.74,29.58,10,10,10,33,9,41,0.00,0,,252
2013-2-18,39,30,21,29,19,11,70,59,47,30.19,29.89,29.63,10,10,10,41,25,52,0.00,5,,340
2013-2-19,30,21,12,11,6,-1,84,58,31,30.37,30.29,30.19,10,10,10,20,9,74,0.00,0,,13
2013-2-20,22,16,9,18,10,-2,92,69,45,30.32,30.11,30.00,10,5,1,23,14,29,0.03,7,Snow,115
2013-2-21,17,15,13,14,12,10,88,84,80,30.13,29.97,29.86,7,2,0,20,13,25,0.16,8,Fog-Snow,62
2013-2-22,22,11,0,13,7,-2,95,81,67,30.10,30.02,29.90,10,8,0,17,9,20,T,2,Fog-Snow,320
2013-2-23,35,19,2,24,15,0,100,80,59,30.00,29.87,29.75,10,7,1,40,4,81,0.00,0,,225
2013-2-24,31,21,11,27,16,8,100,85,69,30.14,29.91,29.75,10,4,0,21,7,83,0.00,6,Fog,4
2013-2-25,35,21,6,30,24,9,92,77,61,30.13,30.05,29.92,10,9,3,16,8,22,T,4,Rain,355
2013-2-26,32,16,0,22,12,-1,100,80,59,30.05,29.97,29.84,10,9,6,15,6,18,0.00,1,,6
2013-2-27,32,28,23,27,23,19,88,80,72,30.24,30.15,30.03,10,10,4,29,18,35,T,5,,343
2013-2-28,34,23,12,25,21,13,92,81,69,30.31,30.25,30.16,10,10,6,22,11,28,0.00,4,,353